createdAt,value
2023-04-26T00:01:04.125Z,20.73
2023-04-26T00:04:08.710Z,20.80
2023-04-26T00:07:14.046Z,20.79
2023-04-26T00:10:16.851Z,20.73
2023-04-26T00:13:19.590Z,20.64
2023-04-26T00:16:22.449Z,20.57
2023-04-26T00:19:25.312Z,20.61
2023-04-26T00:22:29.841Z,20.64
2023-04-26T00:25:32.759Z,20.69
2023-04-26T00:28:35.571Z,20.66
2023-04-26T00:31:38.436Z,20.72
2023-04-26T00:34:43.440Z,20.65
2023-04-26T00:37:47.556Z,20.63
2023-04-26T00:40:50.303Z,20.54
2023-04-26T00:43:53.100Z,20.59
2023-04-26T00:46:56.005Z,20.52
2023-04-26T00:49:58.808Z,20.55
2023-04-26T00:53:03.856Z,20.55
2023-04-26T00:56:08.092Z,20.56
2023-04-26T00:59:10.928Z,20.50
2023-04-26T01:02:14.075Z,20.48
2023-04-26T01:05:16.913Z,20.57
2023-04-26T01:08:21.954Z,20.50
2023-04-26T01:11:24.852Z,20.60
2023-04-26T01:14:27.680Z,20.60
2023-04-26T01:17:31.168Z,20.57
2023-04-26T01:20:34.908Z,20.61
2023-04-26T01:23:39.027Z,20.58
2023-04-26T01:26:45.926Z,20.61
2023-04-26T01:29:48.838Z,20.46
2023-04-26T01:32:51.707Z,20.52
2023-04-26T01:35:54.484Z,20.52
2023-04-26T01:38:58.658Z,20.53
2023-04-26T01:42:03.000Z,20.46
2023-04-26T01:45:06.688Z,20.53
2023-04-26T01:48:09.467Z,20.42
2023-04-26T01:51:12.245Z,20.40
2023-04-26T01:54:16.515Z,20.40
2023-04-26T01:57:19.332Z,20.42
2023-04-26T02:00:22.175Z,20.41
2023-04-26T02:03:25.045Z,20.41
2023-04-26T02:06:28.071Z,20.40
2023-04-26T02:09:32.373Z,20.37
2023-04-26T02:12:35.111Z,20.41
2023-04-26T02:15:37.871Z,20.35
2023-04-26T02:18:41.699Z,20.37
2023-04-26T02:21:55.271Z,20.44
2023-04-26T02:24:59.413Z,20.41
2023-04-26T02:28:02.156Z,20.46
2023-04-26T02:31:04.967Z,20.43
2023-04-26T02:34:07.835Z,20.42
2023-04-26T02:37:10.641Z,20.38
2023-04-26T02:40:14.885Z,20.42
2023-04-26T02:43:17.616Z,20.35
2023-04-26T02:46:21.164Z,20.47
2023-04-26T02:49:24.062Z,20.38
2023-04-26T02:52:26.906Z,20.35
2023-04-26T02:55:31.253Z,20.40
2023-04-26T02:58:36.144Z,20.35
2023-04-26T03:01:39.309Z,20.45
2023-04-26T03:04:42.253Z,20.35
2023-04-26T03:07:45.012Z,20.35
2023-04-26T03:10:49.206Z,20.33
2023-04-26T03:13:52.025Z,20.39
2023-04-26T03:16:55.090Z,20.31
2023-04-26T03:19:59.061Z,20.26
2023-04-26T03:23:02.674Z,20.31
2023-04-26T03:26:07.030Z,20.27
2023-04-26T03:29:09.840Z,20.37
2023-04-26T03:32:12.733Z,20.44
2023-04-26T03:35:15.607Z,20.35
2023-04-26T03:38:18.525Z,20.39
2023-04-26T03:41:22.877Z,20.30
2023-04-26T03:44:25.653Z,20.36
2023-04-26T03:47:28.497Z,20.42
2023-04-26T03:50:31.304Z,20.43
2023-04-26T03:53:34.345Z,20.38
2023-04-26T03:56:39.285Z,20.40
2023-04-26T03:59:42.046Z,20.39
2023-04-26T04:02:45.299Z,20.48
2023-04-26T04:05:48.230Z,20.46
2023-04-26T04:08:51.225Z,20.45
2023-04-26T04:11:55.607Z,20.43
2023-04-26T04:14:58.423Z,20.45
2023-04-26T04:18:01.242Z,20.42
2023-04-26T04:21:04.076Z,20.47
2023-04-26T04:24:07.212Z,20.50
2023-04-26T04:27:11.699Z,20.48
2023-04-26T04:30:14.778Z,20.51
2023-04-26T04:33:17.959Z,20.57
2023-04-26T04:36:20.678Z,20.65
2023-04-26T04:39:23.489Z,20.53
2023-04-26T04:42:28.413Z,20.48
2023-04-26T04:45:31.271Z,20.72
2023-04-26T04:48:34.281Z,20.71
2023-04-26T04:51:37.279Z,20.75
2023-04-26T04:54:40.093Z,20.88
2023-04-26T04:57:44.236Z,20.64
2023-04-26T05:00:47.108Z,20.64
2023-04-26T05:03:50.025Z,20.62
2023-04-26T05:06:53.681Z,20.58
2023-04-26T05:09:56.457Z,20.63
2023-04-26T05:13:00.645Z,20.69
2023-04-26T05:16:03.404Z,20.70
2023-04-26T05:19:08.679Z,20.66
2023-04-26T05:22:13.235Z,20.72
2023-04-26T05:25:17.345Z,20.74
2023-04-26T05:28:21.872Z,20.72
2023-04-26T05:31:24.620Z,20.69
2023-04-26T05:34:27.963Z,20.78
2023-04-26T05:37:30.797Z,20.94
2023-04-26T05:40:33.574Z,20.75
2023-04-26T05:43:38.425Z,20.77
2023-04-26T05:46:41.350Z,20.75
2023-04-26T05:49:44.085Z,20.77
2023-04-26T05:52:46.839Z,20.82
2023-04-26T05:55:49.749Z,20.75
2023-04-26T05:58:54.231Z,20.76
2023-04-26T06:01:56.981Z,20.79
2023-04-26T06:04:59.899Z,20.80
2023-04-26T06:08:02.958Z,20.89
2023-04-26T06:11:05.772Z,20.90
2023-04-26T06:14:19.813Z,20.88
2023-04-26T06:17:31.927Z,21.01
2023-04-26T06:20:34.706Z,20.91
2023-04-26T06:23:37.463Z,20.97
2023-04-26T06:26:40.219Z,20.90
2023-04-26T06:29:47.766Z,21.08
2023-04-26T06:32:50.608Z,20.94
2023-04-26T06:35:53.524Z,21.07
2023-04-26T06:38:56.332Z,20.95
2023-04-26T06:41:59.079Z,20.94
2023-04-26T06:45:03.253Z,21.02
2023-04-26T06:48:06.856Z,21.07
2023-04-26T06:51:09.948Z,21.00
2023-04-26T06:54:13.547Z,21.02
2023-04-26T06:57:16.321Z,21.07
2023-04-26T07:00:20.854Z,21.05
2023-04-26T07:03:23.800Z,21.08
2023-04-26T07:06:27.250Z,21.06
2023-04-26T07:09:30.023Z,21.05
2023-04-26T07:12:32.832Z,21.00
2023-04-26T07:15:37.288Z,21.02
2023-04-26T07:18:40.575Z,21.05
2023-04-26T07:21:43.331Z,21.03
2023-04-26T07:24:46.125Z,21.10
2023-04-26T07:27:51.713Z,21.21
2023-04-26T07:30:55.840Z,21.19
2023-04-26T07:33:58.651Z,21.28
2023-04-26T07:37:01.676Z,21.32
2023-04-26T07:40:05.962Z,21.36
2023-04-26T07:43:08.761Z,21.30
2023-04-26T07:46:13.026Z,21.34
2023-04-26T07:49:15.889Z,21.33
2023-04-26T07:52:18.651Z,21.46
2023-04-26T07:55:21.848Z,21.34
2023-04-26T07:58:24.720Z,21.43
2023-04-26T08:01:29.157Z,21.26
2023-04-26T08:04:33.759Z,21.34
2023-04-26T08:07:36.883Z,21.38
2023-04-26T08:10:41.760Z,21.35
2023-04-26T08:13:45.131Z,21.39
2023-04-26T08:16:49.361Z,21.35
2023-04-26T08:19:52.124Z,21.29
2023-04-26T08:22:56.632Z,21.36
2023-04-26T08:25:59.406Z,21.43
2023-04-26T08:29:02.189Z,21.45
2023-04-26T08:32:07.285Z,21.50
2023-04-26T08:35:10.674Z,21.39
2023-04-26T08:38:13.475Z,21.41
2023-04-26T08:41:16.891Z,21.48
2023-04-26T08:44:24.156Z,21.40
2023-04-26T08:47:31.852Z,21.59
2023-04-26T08:50:35.652Z,21.59
2023-04-26T08:53:38.644Z,21.67
2023-04-26T08:56:44.211Z,21.67
2023-04-26T08:59:47.364Z,21.67
2023-04-26T09:02:52.989Z,21.68
2023-04-26T09:05:56.526Z,21.75
2023-04-26T09:09:00.419Z,21.68
2023-04-26T09:12:03.528Z,21.75
2023-04-26T09:15:07.360Z,21.81
2023-04-26T09:18:21.651Z,21.81
2023-04-26T09:21:24.456Z,21.62
2023-04-26T09:24:27.230Z,21.31
2023-04-26T09:27:33.810Z,21.26
2023-04-26T09:30:40.448Z,21.25
2023-04-26T09:33:58.029Z,21.30
2023-04-26T09:37:02.189Z,21.35
2023-04-26T09:40:10.377Z,21.44
2023-04-26T09:43:13.636Z,21.35
2023-04-26T09:46:23.729Z,21.25
2023-04-26T09:49:27.205Z,21.27
2023-04-26T09:52:31.376Z,21.20
2023-04-26T09:55:35.738Z,21.26
2023-04-26T09:58:39.597Z,21.36
2023-04-26T10:01:42.385Z,21.43
2023-04-26T10:04:46.420Z,21.49
2023-04-26T10:07:51.938Z,21.56
2023-04-26T10:10:55.545Z,21.66
2023-04-26T10:13:58.599Z,21.57
2023-04-26T10:17:01.777Z,21.53
2023-04-26T10:20:06.508Z,21.33
2023-04-26T10:23:17.117Z,21.34
2023-04-26T10:26:38.611Z,21.60
2023-04-26T10:29:59.714Z,21.45
2023-04-26T10:33:17.515Z,21.58
2023-04-26T10:36:21.177Z,21.56
2023-04-26T10:39:28.237Z,21.61
2023-04-26T10:42:32.421Z,21.71
2023-04-26T10:45:35.393Z,21.61
2023-04-26T10:48:38.259Z,21.51
2023-04-26T10:51:41.006Z,21.52
2023-04-26T10:54:49.476Z,21.37
2023-04-26T10:57:53.964Z,21.31
2023-04-26T11:01:06.503Z,21.36
2023-04-26T11:04:10.232Z,21.46
2023-04-26T11:07:14.918Z,21.71
2023-04-26T11:10:24.980Z,21.76
2023-04-26T11:13:27.870Z,21.58
2023-04-26T11:16:30.786Z,21.53
2023-04-26T11:19:33.665Z,21.65
2023-04-26T11:22:40.516Z,21.60
2023-04-26T11:25:45.457Z,21.64
2023-04-26T11:28:50.318Z,21.64
2023-04-26T11:31:54.282Z,21.59
2023-04-26T11:35:01.086Z,21.60
2023-04-26T11:38:05.236Z,21.93
2023-04-26T11:41:10.554Z,22.26
2023-04-26T11:44:13.538Z,22.31
2023-04-26T11:47:16.486Z,22.21
2023-04-26T11:50:20.928Z,22.27
2023-04-26T11:53:23.816Z,22.23
2023-04-26T11:56:28.021Z,22.23
2023-04-26T11:59:31.550Z,22.22
2023-04-26T12:02:36.587Z,22.24
2023-04-26T12:05:39.733Z,22.24
2023-04-26T12:08:42.676Z,22.28
2023-04-26T12:11:55.242Z,22.31
2023-04-26T12:14:57.978Z,22.32
2023-04-26T12:18:01.435Z,22.29
2023-04-26T12:21:04.361Z,22.36
2023-04-26T12:24:07.722Z,22.35
2023-04-26T12:27:22.964Z,22.35
2023-04-26T12:30:26.710Z,22.37
2023-04-26T12:33:29.722Z,22.40
2023-04-26T12:36:32.763Z,22.42
2023-04-26T12:39:35.534Z,22.43
2023-04-26T12:42:39.708Z,22.13
2023-04-26T12:45:42.501Z,22.23
2023-04-26T12:48:45.374Z,22.34
2023-04-26T12:51:48.131Z,22.21
2023-04-26T12:54:50.915Z,22.08
2023-04-26T12:57:55.780Z,22.04
2023-04-26T13:00:58.562Z,22.27
2023-04-26T13:04:04.713Z,22.08
2023-04-26T13:07:08.218Z,22.37
2023-04-26T13:10:13.149Z,22.41
2023-04-26T13:13:17.492Z,22.63
2023-04-26T13:16:20.491Z,22.58
2023-04-26T13:19:23.921Z,22.51
2023-04-26T13:22:27.074Z,22.34
2023-04-26T13:25:29.898Z,22.46
2023-04-26T13:28:33.991Z,22.48
2023-04-26T13:31:36.963Z,22.50
2023-04-26T13:34:40.338Z,22.61
2023-04-26T13:37:43.525Z,22.55
2023-04-26T13:40:46.599Z,22.46
2023-04-26T13:43:53.779Z,22.44
2023-04-26T13:46:57.221Z,22.28
2023-04-26T13:50:01.133Z,22.16
2023-04-26T13:53:04.456Z,22.10
2023-04-26T13:56:09.426Z,22.16
2023-04-26T13:59:13.531Z,22.10
2023-04-26T14:02:16.487Z,22.10
2023-04-26T14:05:19.555Z,22.09
2023-04-26T14:08:22.402Z,21.98
2023-04-26T14:11:25.312Z,22.11
2023-04-26T14:14:29.522Z,22.14
2023-04-26T14:17:32.589Z,22.15
2023-04-26T14:20:36.256Z,22.00
2023-04-26T14:23:38.965Z,22.09
2023-04-26T14:26:41.844Z,22.15
2023-04-26T14:29:46.110Z,22.23
2023-04-26T14:32:48.972Z,22.04
2023-04-26T14:35:51.769Z,22.30
2023-04-26T14:38:54.601Z,22.08
2023-04-26T14:41:57.930Z,22.17
2023-04-26T14:45:04.838Z,22.38
2023-04-26T14:48:07.902Z,22.39
2023-04-26T14:51:11.144Z,22.38
2023-04-26T14:54:13.928Z,22.47
2023-04-26T14:57:16.702Z,22.45
2023-04-26T15:00:22.713Z,22.51
2023-04-26T15:03:25.671Z,22.58
2023-04-26T15:06:28.889Z,22.55
2023-04-26T15:09:31.779Z,22.33
2023-04-26T15:12:34.660Z,22.47
2023-04-26T15:15:39.272Z,22.35
2023-04-26T15:18:42.062Z,22.46
2023-04-26T15:21:44.807Z,22.53
2023-04-26T15:24:49.652Z,22.50
2023-04-26T15:27:52.436Z,22.49
2023-04-26T15:31:03.582Z,22.38
2023-04-26T15:34:06.429Z,22.40
2023-04-26T15:37:09.210Z,22.33
2023-04-26T15:40:12.562Z,22.13
2023-04-26T15:43:16.333Z,22.01
2023-04-26T15:46:20.625Z,21.93
2023-04-26T15:49:24.521Z,21.90
2023-04-26T15:52:27.349Z,21.81
2023-04-26T15:55:30.217Z,21.92
2023-04-26T15:58:32.997Z,21.85
2023-04-26T16:01:37.245Z,21.85
2023-04-26T16:04:40.151Z,21.82
2023-04-26T16:07:43.027Z,21.78
2023-04-26T16:10:45.845Z,21.78
2023-04-26T16:13:51.966Z,21.65
2023-04-26T16:17:01.234Z,21.75
2023-04-26T16:20:05.986Z,21.70
2023-04-26T16:23:08.714Z,21.75
2023-04-26T16:26:12.048Z,21.76
2023-04-26T16:29:15.157Z,21.57
2023-04-26T16:32:19.390Z,21.60
2023-04-26T16:35:22.221Z,22.42
2023-04-26T16:38:25.116Z,22.41
2023-04-26T16:41:28.146Z,22.42
2023-04-26T16:44:31.095Z,22.38
2023-04-26T16:47:35.268Z,22.42
2023-04-26T16:50:37.995Z,22.46
2023-04-26T16:53:40.868Z,22.43
2023-04-26T16:56:43.871Z,22.39
2023-04-26T16:59:47.245Z,22.44
2023-04-26T17:02:51.628Z,22.42
2023-04-26T17:05:54.510Z,22.42
2023-04-26T17:08:57.302Z,22.42
2023-04-26T17:12:00.099Z,22.41
2023-04-26T17:15:04.595Z,22.40
2023-04-26T17:18:09.627Z,22.38
2023-04-26T17:21:12.563Z,22.42
2023-04-26T17:24:15.323Z,22.31
2023-04-26T17:27:18.708Z,22.39
2023-04-26T17:30:22.475Z,22.37
2023-04-26T17:33:26.867Z,22.36
2023-04-26T17:36:29.624Z,22.33
2023-04-26T17:39:32.439Z,22.33
2023-04-26T17:42:35.211Z,22.29
2023-04-26T17:45:38.064Z,22.31
2023-04-26T17:48:42.273Z,22.39
2023-04-26T17:51:45.024Z,22.42
2023-04-26T17:54:47.796Z,22.37
2023-04-26T17:57:50.705Z,22.36
2023-04-26T18:00:53.910Z,22.37
2023-04-26T18:03:58.497Z,22.43
2023-04-26T18:07:01.417Z,22.38
2023-04-26T18:10:05.036Z,22.35
2023-04-26T18:13:07.907Z,22.35
2023-04-26T18:16:11.817Z,22.30
2023-04-26T18:19:16.148Z,22.25
2023-04-26T18:22:18.928Z,22.22
2023-04-26T18:25:21.845Z,22.27
2023-04-26T18:28:24.677Z,22.35
2023-04-26T18:31:28.088Z,22.32
2023-04-26T18:34:32.288Z,22.32
2023-04-26T18:37:35.001Z,22.26
2023-04-26T18:40:37.809Z,22.32
2023-04-26T18:43:40.719Z,22.34
2023-04-26T18:46:43.799Z,22.25
2023-04-26T18:49:47.930Z,22.28
2023-04-26T18:52:53.754Z,22.29
2023-04-26T18:55:57.180Z,22.28
2023-04-26T18:59:00.020Z,22.28
2023-04-26T19:02:04.405Z,22.24
2023-04-26T19:05:09.786Z,22.20
2023-04-26T19:08:13.419Z,22.20
2023-04-26T19:11:16.180Z,22.21
2023-04-26T19:14:19.019Z,22.32
2023-04-26T19:17:22.107Z,22.26
2023-04-26T19:20:27.989Z,22.26
2023-04-26T19:23:30.711Z,22.27
2023-04-26T19:26:33.592Z,22.28
2023-04-26T19:29:36.446Z,22.31
2023-04-26T19:32:39.234Z,22.25
2023-04-26T19:35:43.379Z,22.30
2023-04-26T19:38:48.547Z,22.30
2023-04-26T19:41:51.326Z,22.24
2023-04-26T19:44:54.156Z,22.24
2023-04-26T19:47:57.388Z,22.22
2023-04-26T19:51:01.670Z,22.22
2023-04-26T19:54:04.541Z,22.20
2023-04-26T19:57:07.348Z,22.19
2023-04-26T20:00:11.766Z,22.22
2023-04-26T20:03:14.728Z,22.21
2023-04-26T20:06:19.041Z,22.20
2023-04-26T20:09:22.036Z,22.08
2023-04-26T20:12:25.199Z,22.13
2023-04-26T20:15:29.343Z,22.14
2023-04-26T20:18:33.311Z,22.20
2023-04-26T20:21:37.434Z,22.20
2023-04-26T20:24:40.245Z,22.19
2023-04-26T20:27:43.004Z,22.17
2023-04-26T20:30:45.779Z,22.18
2023-04-26T22:47:24.085Z,21.62
2023-04-26T22:50:27.085Z,21.68
2023-04-26T22:53:29.869Z,21.63
2023-04-26T22:56:32.908Z,21.59
2023-04-26T22:59:35.802Z,21.61
2023-04-26T23:02:40.156Z,21.61
2023-04-26T23:05:43.684Z,21.57
2023-04-26T23:08:46.509Z,21.59
2023-04-26T23:11:49.376Z,21.56
2023-04-26T23:14:52.278Z,21.57
2023-04-26T23:17:56.668Z,21.60
2023-04-26T23:20:59.639Z,21.59
2023-04-26T23:24:02.423Z,21.61
2023-04-26T23:27:05.357Z,21.71
2023-04-26T23:30:08.813Z,21.80
2023-04-26T23:33:13.116Z,21.86
2023-04-26T23:36:16.013Z,21.83
2023-04-26T23:39:19.109Z,21.86
2023-04-26T23:42:21.972Z,21.85
2023-04-26T23:45:24.925Z,21.83
2023-04-26T23:48:29.143Z,21.85
2023-04-26T23:51:32.413Z,21.85
2023-04-26T23:54:35.210Z,21.84
2023-04-26T23:57:38.048Z,21.79
